Wilson Gdynia — 8PSA — position and weather

sailwx.info

Track history (hours):
 
Tides and Currents Weather Stations Pressure Air Temp Water Temp Dewpoint Dewpoint Depression Visibility Wind Speed Wind Dir Waves Ship Positions

Wilson Gdynia

Last reported at 2016-Feb-08 09:34 UTC. Time now 2016-Feb-08 10:18 UTC.
Position N 57°40' E 011°48'.

Length 88 m; draft 5.4 m.

Type: Cargo ship. MMSI: 314192000.

Date/timePositionNaut miles runAvg speedWind from/ knotsBaromVisibWave heightAir tempDewpointWater temp
2016-Feb-08 09:34N 57°40' E 011°48'0 0.0
2016-Feb-08 08:33N 57°40' E 011°48'7 6.8
2016-Feb-08 07:33N 57°35' E 011°38'8 8.3
2016-Feb-08 06:34N 57°27' E 011°41'8 7.5
2016-Feb-08 05:33N 57°20' E 011°47'8 7.6
2016-Feb-08 04:33N 57°13' E 011°52'7 7.4
2016-Feb-08 03:34N 57°06' E 011°57'7 7.4
2016-Feb-08 02:33N 56°59' E 012°00'7 7.2
2016-Feb-08 01:34N 56°52' E 012°05'7 7.3
2016-Feb-08 00:33N 56°45' E 012°08'7 6.9
2016-Feb-07 23:33N 56°39' E 012°13'30 7.5
2016-Feb-07 19:32N 56°10' E 012°29'9 9.6
2016-Feb-07 18:33N 56°03' E 012°40'8 8.4
2016-Feb-07 17:33N 55°55' E 012°45'9 9.0
2016-Feb-07 16:34N 55°46' E 012°42'1010.3
2016-Feb-07 15:34N 55°36' E 012°42'9 9.2
2016-Feb-07 14:34N 55°26' E 012°42'8 8.2
2016-Feb-07 13:34N 55°18' E 012°43'8 7.6
2016-Feb-07 12:33N 55°16' E 012°56'9 7.3
2016-Feb-07 11:20N 55°15' E 013°11'6 8.1
2016-Feb-07 10:33N 55°15' E 013°23'8 8.2
2016-Feb-07 09:33N 55°15' E 013°37'8 8.3
2016-Feb-07 08:33N 55°14' E 013°52'8 7.9
2016-Feb-07 07:33N 55°14' E 014°05'8 7.8
2016-Feb-07 06:33N 55°16' E 014°19'9 8.6
2016-Feb-07 05:34N 55°23' E 014°28'8 8.4
2016-Feb-07 04:33N 55°29' E 014°39'9 8.7
2016-Feb-07 03:33N 55°33' E 014°52'9 9.1
2016-Feb-07 02:33N 55°37' E 015°06'  
2016-Jan-29 21:31N 55°26' E 015°38'9 9.2
2016-Jan-29 20:34N 55°26' E 015°23'10 9.8
2016-Jan-29 19:34N 55°25' E 015°06'10 9.5
2016-Jan-29 18:34N 55°24' E 014°49'9 8.8
2016-Jan-29 17:34N 55°20' E 014°35'9 9.4
2016-Jan-29 16:33N 55°13' E 014°23'9 8.5
2016-Jan-29 15:33N 55°10' E 014°09'9 9.1
2016-Jan-29 14:33N 55°11' E 013°54'20 8.9
2016-Jan-29 12:19N 55°13' E 013°19'7 8.6
2016-Jan-29 11:33N 55°14' E 013°08'9 8.8
2016-Jan-29 10:33N 55°15' E 012°52'  
Track history (hours):
 
Tides and Currents Weather Stations Pressure Air Temp Water Temp Dewpoint Dewpoint Depression Visibility Wind Speed Wind Dir Waves Ship Positions

Wilson Gdynia

Last reported at 2016-Feb-08 09:34 UTC. Time now 2016-Feb-08 10:18 UTC.
Position N 57°40' E 011°48'.

Length 88 m; draft 5.4 m.

Type: Cargo ship. MMSI: 314192000.

Date/timePositionNaut miles runAvg speedWind from/ knotsBaromVisibWave heightAir tempDewpointWater temp
2016-Feb-08 09:34N 57°40' E 011°48'0 0.0
2016-Feb-08 08:33N 57°40' E 011°48'7 6.8
2016-Feb-08 07:33N 57°35' E 011°38'8 8.3
2016-Feb-08 06:34N 57°27' E 011°41'8 7.5
2016-Feb-08 05:33N 57°20' E 011°47'8 7.6
2016-Feb-08 04:33N 57°13' E 011°52'7 7.4
2016-Feb-08 03:34N 57°06' E 011°57'7 7.4
2016-Feb-08 02:33N 56°59' E 012°00'7 7.2
2016-Feb-08 01:34N 56°52' E 012°05'7 7.3
2016-Feb-08 00:33N 56°45' E 012°08'7 6.9
2016-Feb-07 23:33N 56°39' E 012°13'30 7.5
2016-Feb-07 19:32N 56°10' E 012°29'9 9.6
2016-Feb-07 18:33N 56°03' E 012°40'8 8.4
2016-Feb-07 17:33N 55°55' E 012°45'9 9.0
2016-Feb-07 16:34N 55°46' E 012°42'1010.3
2016-Feb-07 15:34N 55°36' E 012°42'9 9.2
2016-Feb-07 14:34N 55°26' E 012°42'8 8.2
2016-Feb-07 13:34N 55°18' E 012°43'8 7.6
2016-Feb-07 12:33N 55°16' E 012°56'9 7.3
2016-Feb-07 11:20N 55°15' E 013°11'6 8.1
2016-Feb-07 10:33N 55°15' E 013°23'8 8.2
2016-Feb-07 09:33N 55°15' E 013°37'8 8.3
2016-Feb-07 08:33N 55°14' E 013°52'8 7.9
2016-Feb-07 07:33N 55°14' E 014°05'8 7.8
2016-Feb-07 06:33N 55°16' E 014°19'9 8.6
2016-Feb-07 05:34N 55°23' E 014°28'8 8.4
2016-Feb-07 04:33N 55°29' E 014°39'9 8.7
2016-Feb-07 03:33N 55°33' E 014°52'9 9.1
2016-Feb-07 02:33N 55°37' E 015°06'  
2016-Jan-29 21:31N 55°26' E 015°38'9 9.2
2016-Jan-29 20:34N 55°26' E 015°23'10 9.8
2016-Jan-29 19:34N 55°25' E 015°06'10 9.5
2016-Jan-29 18:34N 55°24' E 014°49'9 8.8
2016-Jan-29 17:34N 55°20' E 014°35'9 9.4
2016-Jan-29 16:33N 55°13' E 014°23'9 8.5
2016-Jan-29 15:33N 55°10' E 014°09'9 9.1
2016-Jan-29 14:33N 55°11' E 013°54'20 8.9
2016-Jan-29 12:19N 55°13' E 013°19'7 8.6
2016-Jan-29 11:33N 55°14' E 013°08'9 8.8
2016-Jan-29 10:33N 55°15' E 012°52'  

Dump ship's entire track history